createdAt,value
2022-11-14T00:01:38.412Z,100883.84
2022-11-14T00:04:05.448Z,100874.25
2022-11-14T00:06:32.416Z,100878.91
2022-11-14T00:08:59.027Z,100879.91
2022-11-14T00:11:25.603Z,100874.63
2022-11-14T00:13:52.401Z,100869.50
2022-11-14T00:16:19.012Z,100864.22
2022-11-14T00:18:45.646Z,100859.94
2022-11-14T00:21:12.256Z,100857.28
2022-11-14T00:23:38.885Z,100856.63
2022-11-14T00:26:05.695Z,100848.03
2022-11-14T00:28:32.536Z,100847.22
2022-11-14T00:30:59.407Z,100834.81
2022-11-14T00:33:26.105Z,100833.19
2022-11-14T00:35:54.290Z,100828.91
2022-11-14T00:38:21.300Z,100836.16
2022-11-14T00:40:47.930Z,100833.88
2022-11-14T00:43:14.592Z,100838.50
2022-11-14T00:45:42.905Z,100834.19
2022-11-14T00:48:09.566Z,100838.50
2022-11-14T00:50:36.291Z,100836.84
2022-11-14T00:53:02.901Z,100822.78
2022-11-14T00:55:29.535Z,100823.63
2022-11-14T00:57:56.166Z,100822.00
2022-11-14T01:00:22.945Z,100816.72
2022-11-14T01:02:49.584Z,100820.16
2022-11-14T01:05:16.249Z,100814.88
2022-11-14T01:07:42.917Z,100812.06
2022-11-14T01:10:10.055Z,100804.97
2022-11-14T01:12:36.769Z,100804.97
2022-11-14T01:15:03.511Z,100803.97
2022-11-14T01:17:30.160Z,100798.69
2022-11-14T01:19:56.800Z,100796.03
2022-11-14T01:22:23.443Z,100789.94
2022-11-14T01:24:50.197Z,100793.41
2022-11-14T01:27:17.054Z,100793.22
2022-11-14T01:29:43.655Z,100788.75
2022-11-14T01:32:10.251Z,100784.63
2022-11-14T01:34:36.875Z,100780.19
2022-11-14T01:37:03.649Z,100774.72
2022-11-14T01:39:30.295Z,100767.78
2022-11-14T01:41:57.010Z,100764.31
2022-11-14T01:44:33.372Z,100767.97
2022-11-14T01:47:00.196Z,100755.56
2022-11-14T01:49:31.846Z,100758.88
2022-11-14T01:52:02.365Z,100762.31
2022-11-14T01:54:31.296Z,100759.66
2022-11-14T01:57:00.219Z,100764.78
2022-11-14T01:59:30.440Z,100754.22
2022-11-14T02:01:59.182Z,100757.84
2022-11-14T02:04:27.851Z,100745.66
2022-11-14T02:06:57.431Z,100755.22
2022-11-14T02:09:24.464Z,100754.22
2022-11-14T02:11:52.340Z,100751.41
2022-11-14T02:14:19.463Z,100757.53
2022-11-14T02:17:07.231Z,100757.31
2022-11-14T02:19:42.110Z,100753.88
2022-11-14T02:22:08.725Z,100747.59
2022-11-14T02:24:35.440Z,100748.25
2022-11-14T02:27:02.993Z,100742.13
2022-11-14T02:29:31.910Z,100738.50
2022-11-14T02:31:58.750Z,100739.66
2022-11-14T02:34:25.526Z,100743.94
2022-11-14T02:36:52.221Z,100738.81
2022-11-14T02:39:18.790Z,100741.47
2022-11-14T02:41:45.460Z,100737.00
2022-11-14T02:44:12.071Z,100735.38
2022-11-14T02:46:38.720Z,100730.25
2022-11-14T02:49:05.644Z,100730.44
2022-11-14T02:51:32.270Z,100725.13
2022-11-14T02:53:59.126Z,100716.38
2022-11-14T02:56:26.028Z,100723.50
2022-11-14T02:58:52.768Z,100711.09
2022-11-14T03:01:21.235Z,100714.56
2022-11-14T03:03:48.556Z,100717.38
2022-11-14T03:06:15.596Z,100719.22
2022-11-14T03:08:42.355Z,100716.38
2022-11-14T03:11:10.226Z,100713.94
2022-11-14T03:13:37.135Z,100719.22
2022-11-14T03:16:08.136Z,100711.47
2022-11-14T03:18:35.124Z,100708.00
2022-11-14T03:21:05.586Z,100713.28
2022-11-14T03:23:32.739Z,100708.00
2022-11-14T03:26:01.225Z,100702.88
2022-11-14T03:28:37.715Z,100702.88
2022-11-14T03:31:07.144Z,100693.28
2022-11-14T03:33:34.045Z,100693.28
2022-11-14T03:36:01.095Z,100678.78
2022-11-14T03:38:28.656Z,100686.53
2022-11-14T03:40:58.036Z,100685.88
2022-11-14T03:43:24.746Z,100684.25
2022-11-14T03:45:51.485Z,100683.44
2022-11-14T03:48:18.361Z,100682.63
2022-11-14T03:50:45.236Z,100685.25
2022-11-14T03:53:11.958Z,100686.25
2022-11-14T03:55:39.567Z,100683.59
2022-11-14T03:58:06.346Z,100681.78
2022-11-14T04:00:33.279Z,100688.06
2022-11-14T04:03:00.085Z,100683.13
2022-11-14T04:05:26.986Z,100678.84
2022-11-14T04:07:53.745Z,100677.03
2022-11-14T04:10:20.624Z,100666.63
2022-11-14T04:12:49.071Z,100669.25
2022-11-14T04:15:16.636Z,100663.50
2022-11-14T04:17:43.742Z,100665.50
2022-11-14T04:20:11.041Z,100670.78
2022-11-14T04:22:38.271Z,100667.31
2022-11-14T04:25:05.301Z,100662.03
2022-11-14T04:27:31.910Z,100655.91
2022-11-14T04:29:58.540Z,100657.56
2022-11-14T04:32:25.166Z,100661.88
2022-11-14T04:34:51.745Z,100660.22
2022-11-14T04:37:18.481Z,100660.38
2022-11-14T04:39:45.057Z,100655.91
2022-11-14T04:42:11.691Z,100647.16
2022-11-14T04:44:38.335Z,100639.91
2022-11-14T04:47:04.971Z,100642.38
2022-11-14T04:49:31.716Z,100639.72
2022-11-14T04:51:58.331Z,100636.25
2022-11-14T04:54:24.921Z,100628.34
2022-11-14T04:56:51.539Z,100633.47
2022-11-14T04:59:20.886Z,100620.41
2022-11-14T05:01:48.083Z,100624.03
2022-11-14T05:04:14.795Z,100623.22
2022-11-14T05:06:41.440Z,100613.63
2022-11-14T05:09:08.131Z,100618.75
2022-11-14T05:11:34.726Z,100615.13
2022-11-14T05:14:01.355Z,100624.22
2022-11-14T05:16:27.945Z,100622.59
2022-11-14T05:18:55.172Z,100619.13
2022-11-14T05:21:21.816Z,100625.22
2022-11-14T05:23:48.452Z,100626.03
2022-11-14T05:26:18.925Z,100619.94
2022-11-14T05:28:45.807Z,100618.28
2022-11-14T05:31:13.861Z,100614.81
2022-11-14T05:33:40.533Z,100615.66
2022-11-14T05:36:12.207Z,100611.38
2022-11-14T05:38:39.010Z,100611.00
2022-11-14T05:41:06.891Z,100609.19
2022-11-14T05:43:33.511Z,100603.91
2022-11-14T05:46:01.081Z,100605.72
2022-11-14T05:48:28.488Z,100607.53
2022-11-14T05:50:56.011Z,100600.44
2022-11-14T05:53:22.646Z,100596.97
2022-11-14T05:55:49.291Z,100587.22
2022-11-14T05:58:15.916Z,100586.22
2022-11-14T06:00:49.811Z,100591.69
2022-11-14T06:03:20.177Z,100582.13
2022-11-14T06:05:46.851Z,100583.13
2022-11-14T06:08:13.919Z,100579.66
2022-11-14T06:10:40.537Z,100577.00
2022-11-14T06:13:07.200Z,100578.47
2022-11-14T06:15:33.867Z,100583.94
2022-11-14T06:18:00.470Z,100589.41
2022-11-14T06:20:27.035Z,100592.22
2022-11-14T06:22:55.461Z,100586.09
2022-11-14T06:25:22.211Z,100589.41
2022-11-14T06:27:48.852Z,100588.56
2022-11-14T06:30:15.801Z,100586.75
2022-11-14T06:32:42.457Z,100584.94
2022-11-14T06:35:09.271Z,100576.34
2022-11-14T06:37:37.533Z,100585.09
2022-11-14T06:40:04.560Z,100587.75
2022-11-14T06:42:31.146Z,100587.94
2022-11-14T06:44:57.803Z,100584.47
2022-11-14T06:47:24.405Z,100573.91
2022-11-14T06:49:51.196Z,100583.97
2022-11-14T06:52:17.816Z,100577.84
2022-11-14T06:54:44.544Z,100576.22
2022-11-14T06:57:11.987Z,100563.84
2022-11-14T06:59:38.655Z,100577.22
2022-11-14T07:02:05.396Z,100568.31
2022-11-14T07:04:32.134Z,100570.13
2022-11-14T07:06:58.876Z,100568.13
2022-11-14T07:09:25.837Z,100579.53
2022-11-14T07:11:52.615Z,100570.78
2022-11-14T07:14:19.547Z,100563.03
2022-11-14T07:16:47.190Z,100564.63
2022-11-14T07:19:13.988Z,100565.38
2022-11-14T07:21:41.194Z,100569.81
2022-11-14T07:24:08.117Z,100556.41
2022-11-14T07:26:35.004Z,100547.50
2022-11-14T07:29:02.727Z,100545.34
2022-11-14T07:31:30.006Z,100546.00
2022-11-14T07:33:56.917Z,100552.28
2022-11-14T07:36:23.845Z,100552.28
2022-11-14T07:38:50.598Z,100563.03
2022-11-14T07:41:17.735Z,100559.72
2022-11-14T07:43:44.815Z,100560.91
2022-11-14T07:46:12.915Z,100566.19
2022-11-14T07:48:39.817Z,100565.38
2022-11-14T07:51:07.768Z,100561.25
2022-11-14T07:53:34.632Z,100560.41
2022-11-14T07:56:03.354Z,100565.88
2022-11-14T07:58:30.567Z,100562.44
2022-11-14T08:01:01.174Z,100562.75
2022-11-14T08:03:28.166Z,100553.19
2022-11-14T08:06:04.906Z,100552.56
2022-11-14T08:08:32.564Z,100552.06
2022-11-14T08:11:00.123Z,100566.09
2022-11-14T08:13:32.593Z,100561.31
2022-11-14T08:16:01.096Z,100560.13
2022-11-14T08:18:28.094Z,100561.41
2022-11-14T08:20:58.031Z,100552.97
2022-11-14T08:23:25.076Z,100549.00
2022-11-14T08:25:51.985Z,100548.00
2022-11-14T08:28:18.712Z,100549.47
2022-11-14T08:30:45.448Z,100546.00
2022-11-14T08:33:12.236Z,100550.31
2022-11-14T08:35:39.199Z,100551.75
2022-11-14T08:38:06.017Z,100558.34
2022-11-14T08:40:32.926Z,100551.34
2022-11-14T08:43:01.226Z,100550.19
2022-11-14T08:45:28.917Z,100554.47
2022-11-14T08:47:55.986Z,100560.38
2022-11-14T08:50:22.990Z,100560.84
2022-11-14T08:52:51.317Z,100565.63
2022-11-14T08:55:18.476Z,100555.84
2022-11-14T08:57:49.164Z,100549.41
2022-11-14T09:00:17.092Z,100553.03
2022-11-14T09:02:44.034Z,100548.56
2022-11-14T09:05:11.488Z,100559.81
2022-11-14T09:07:38.516Z,100558.78
2022-11-14T09:10:05.647Z,100557.78
2022-11-14T09:12:32.676Z,100550.84
2022-11-14T09:14:59.488Z,100542.91
2022-11-14T09:17:26.693Z,100536.63
2022-11-14T09:19:53.540Z,100539.28
2022-11-14T09:22:20.439Z,100542.41
2022-11-14T09:24:48.135Z,100539.56
2022-11-14T09:27:15.034Z,100548.16
2022-11-14T09:29:42.205Z,100543.69
2022-11-14T09:32:09.804Z,100546.13
2022-11-14T09:34:37.563Z,100541.50
2022-11-14T09:37:04.553Z,100535.06
2022-11-14T09:39:31.327Z,100530.38
2022-11-14T09:42:11.860Z,100539.16
2022-11-14T09:44:50.986Z,100530.38
2022-11-14T09:47:22.038Z,100528.56
2022-11-14T09:49:51.164Z,100531.22
2022-11-14T09:52:27.955Z,100533.19
2022-11-14T09:55:04.017Z,100526.91
2022-11-14T09:57:31.161Z,100524.28
2022-11-14T09:59:57.966Z,100516.53
2022-11-14T10:02:31.578Z,100520.19
2022-11-14T10:04:59.562Z,100514.69
2022-11-14T10:07:35.667Z,100509.25
2022-11-14T10:10:09.825Z,100509.06
2022-11-14T10:12:37.821Z,100505.44
2022-11-14T10:15:10.890Z,100500.97
2022-11-14T10:17:41.350Z,100500.13
2022-11-14T10:20:18.795Z,100501.97
2022-11-14T10:23:00.988Z,100497.94
2022-11-14T10:25:33.505Z,100492.09
2022-11-14T10:28:08.083Z,100484.81
2022-11-14T10:30:38.144Z,100489.28
2022-11-14T10:33:14.307Z,100486.44
2022-11-14T10:35:44.600Z,100492.56
2022-11-14T10:38:21.469Z,100493.38
2022-11-14T10:40:53.109Z,100491.56
2022-11-14T10:43:25.776Z,100495.03
2022-11-14T10:46:01.933Z,100487.75
2022-11-14T10:48:29.278Z,100490.03
2022-11-14T10:50:58.280Z,100479.25
2022-11-14T10:53:33.239Z,100481.53
2022-11-14T10:56:04.739Z,100477.88
2022-11-14T10:58:46.782Z,100475.25
2022-11-14T11:01:24.150Z,100468.13
2022-11-14T11:03:51.251Z,100468.13
2022-11-14T11:06:25.749Z,100466.31
2022-11-14T11:09:02.942Z,100464.09
2022-11-14T11:11:29.926Z,100470.66
2022-11-14T11:13:58.277Z,100467.03
2022-11-14T11:16:25.757Z,100464.22
2022-11-14T11:18:52.591Z,100458.53
2022-11-14T11:21:22.991Z,100448.59
2022-11-14T11:23:53.153Z,100451.69
2022-11-14T11:26:20.189Z,100451.31
2022-11-14T11:29:01.836Z,100452.59
2022-11-14T11:31:28.927Z,100437.34
2022-11-14T11:33:55.726Z,100430.03
2022-11-14T11:36:23.877Z,100426.19
2022-11-14T11:38:51.118Z,100420.53
2022-11-14T11:42:02.264Z,100414.69
2022-11-14T11:44:13.137Z,100408.41
2022-11-14T11:46:43.291Z,100399.25
2022-11-14T11:49:20.020Z,100403.19
2022-11-14T11:51:47.690Z,100407.47
2022-11-14T11:54:17.211Z,100402.66
2022-11-14T11:56:45.817Z,100404.91
2022-11-14T11:59:13.900Z,100411.63
2022-11-14T12:01:40.917Z,100413.09
2022-11-14T12:04:07.871Z,100414.34
2022-11-14T12:06:40.366Z,100415.81
2022-11-14T12:09:15.029Z,100412.16
2022-11-14T12:11:45.307Z,100422.19
2022-11-14T12:14:29.106Z,100417.34
2022-11-14T12:17:16.438Z,100413.88
2022-11-14T12:19:56.345Z,100411.22
2022-11-14T12:22:33.993Z,100411.84
2022-11-14T12:25:04.938Z,100403.91
2022-11-14T12:27:42.887Z,100401.69
2022-11-14T12:30:14.005Z,100389.88
2022-11-14T12:32:44.664Z,100386.22
2022-11-14T12:35:21.954Z,100387.22
2022-11-14T12:37:55.386Z,100377.69
2022-11-14T12:40:27.272Z,100385.63
2022-11-14T12:42:54.288Z,100377.28
2022-11-14T12:45:31.260Z,100384.22
2022-11-14T12:48:18.069Z,100393.81
2022-11-14T12:50:45.215Z,100384.66
2022-11-14T12:53:22.520Z,100381.19
2022-11-14T12:55:49.865Z,100375.69
2022-11-14T12:58:17.977Z,100377.34
2022-11-14T13:00:45.106Z,100357.16
2022-11-14T13:03:21.007Z,100358.34
2022-11-14T13:05:55.278Z,100350.22
2022-11-14T13:08:32.249Z,100340.25
2022-11-14T13:10:59.490Z,100346.16
2022-11-14T13:13:36.233Z,100348.22
2022-11-14T13:16:13.871Z,100338.28
2022-11-14T13:18:59.939Z,100330.75
2022-11-14T13:21:43.757Z,100314.91
2022-11-14T13:24:13.406Z,100302.91
2022-11-14T13:26:41.815Z,100302.06
2022-11-14T13:29:09.206Z,100309.66
2022-11-14T13:31:36.856Z,100314.16
2022-11-14T13:34:13.075Z,100311.72
2022-11-14T13:36:49.210Z,100308.91
2022-11-14T13:39:27.798Z,100311.97
2022-11-14T13:42:03.812Z,100307.50
2022-11-14T13:44:37.919Z,100306.28
2022-11-14T13:47:18.500Z,100311.00
2022-11-14T13:49:54.552Z,100310.19
2022-11-14T13:52:22.138Z,100297.56
2022-11-14T13:54:49.931Z,100303.47
2022-11-14T13:57:26.541Z,100301.63
2022-11-14T13:59:53.708Z,100297.38
2022-11-14T14:02:21.777Z,100294.31
2022-11-14T14:04:58.992Z,100291.47
2022-11-14T14:07:35.104Z,100282.72
2022-11-14T14:10:09.304Z,100293.72
2022-11-14T14:12:38.039Z,100286.59
2022-11-14T14:15:14.180Z,100282.28
2022-11-14T14:17:42.229Z,100271.69
2022-11-14T14:20:19.047Z,100258.25
2022-11-14T14:22:56.139Z,100249.06
2022-11-14T14:25:32.371Z,100241.72
2022-11-14T14:28:11.750Z,100239.69
2022-11-14T14:30:38.688Z,100235.88
2022-11-14T14:33:08.802Z,100230.38
2022-11-14T14:35:40.360Z,100232.19
2022-11-14T14:38:12.218Z,100229.53
2022-11-14T14:40:40.579Z,100228.53
2022-11-14T14:43:07.942Z,100225.66
2022-11-14T14:45:43.961Z,100222.00
2022-11-14T14:48:13.503Z,100214.88
2022-11-14T14:50:42.434Z,100204.88
2022-11-14T14:53:20.227Z,100211.81
2022-11-14T14:55:54.769Z,100217.09
2022-11-14T14:58:23.073Z,100215.09
2022-11-14T15:00:52.259Z,100213.06
2022-11-14T15:03:19.559Z,100206.72
2022-11-14T15:05:47.006Z,100204.06
2022-11-14T15:08:16.123Z,100195.09
2022-11-14T15:10:44.249Z,100191.63
2022-11-14T15:13:14.787Z,100192.44
2022-11-14T15:15:41.819Z,100196.09
2022-11-14T15:18:14.875Z,100196.31
2022-11-14T15:20:42.012Z,100201.63
2022-11-14T15:23:09.116Z,100193.03
2022-11-14T15:25:36.540Z,100188.75
2022-11-14T15:28:03.923Z,100182.84
2022-11-14T15:30:35.030Z,100184.88
2022-11-14T15:33:03.567Z,100182.41
2022-11-14T15:35:35.357Z,100178.16
2022-11-14T15:38:36.870Z,100174.69
2022-11-14T15:41:02.052Z,100174.69
2022-11-14T15:43:39.128Z,100168.34
2022-11-14T15:46:26.316Z,100168.34
2022-11-14T15:48:53.315Z,100155.06
2022-11-14T15:51:38.198Z,100149.19
2022-11-14T15:54:05.297Z,100152.66
2022-11-14T15:56:32.895Z,100157.94
2022-11-14T15:59:00.298Z,100158.13
2022-11-14T16:01:27.549Z,100155.66
2022-11-14T16:03:55.085Z,100157.72
2022-11-14T16:06:22.773Z,100151.78
2022-11-14T16:08:49.996Z,100148.50
2022-11-14T16:11:17.256Z,100148.50
2022-11-14T16:13:44.438Z,100147.47
2022-11-14T16:16:11.691Z,100158.31
2022-11-14T16:18:39.010Z,100151.56
2022-11-14T16:21:08.377Z,100151.75
2022-11-14T16:23:37.065Z,100152.78
2022-11-14T16:26:04.340Z,100157.06
2022-11-14T16:28:31.523Z,100157.28
2022-11-14T16:31:01.322Z,100151.16
2022-11-14T16:33:28.754Z,100161.75
2022-11-14T16:35:56.294Z,100165.63
2022-11-14T16:38:23.494Z,100161.31
2022-11-14T16:40:50.528Z,100156.00
2022-11-14T16:43:17.752Z,100158.88
2022-11-14T16:45:44.793Z,100155.00
2022-11-14T16:48:11.997Z,100158.47
2022-11-14T16:50:39.496Z,100156.66
2022-11-14T16:53:06.926Z,100168.88
2022-11-14T16:55:36.241Z,100157.47
2022-11-14T16:58:03.263Z,100150.34
2022-11-14T17:00:30.404Z,100145.84
2022-11-14T17:02:57.556Z,100146.44
2022-11-14T17:05:24.631Z,100151.56
2022-11-14T17:07:51.998Z,100145.44
2022-11-14T17:10:19.639Z,100147.28
2022-11-14T17:12:49.232Z,100149.72
2022-11-14T17:15:18.690Z,100149.53
2022-11-14T17:17:52.547Z,100151.97
2022-11-14T17:20:19.800Z,100162.38
2022-11-14T17:22:46.898Z,100158.72
2022-11-14T17:25:16.885Z,100159.53
2022-11-14T17:27:44.242Z,100161.97
2022-11-14T17:30:12.394Z,100157.47
2022-11-14T17:32:39.759Z,100160.13
2022-11-14T17:35:07.411Z,100160.94
2022-11-14T17:37:34.774Z,100157.31
2022-11-14T17:40:02.263Z,100159.31
2022-11-14T17:42:29.550Z,100157.72
2022-11-14T17:45:01.559Z,100155.06
2022-11-14T17:47:29.282Z,100155.66
2022-11-14T17:49:56.937Z,100160.94
2022-11-14T17:52:24.885Z,100159.13
2022-11-14T17:54:52.419Z,100153.81
2022-11-14T17:57:19.931Z,100156.31
2022-11-14T17:59:48.718Z,100163.44
2022-11-14T18:02:18.181Z,100151.16
2022-11-14T18:04:46.337Z,100159.31
2022-11-14T18:07:13.901Z,100158.31
2022-11-14T18:09:41.951Z,100153.00
2022-11-14T18:12:09.451Z,100152.19
2022-11-14T18:14:36.905Z,100159.53
2022-11-14T18:17:12.740Z,100154.44
2022-11-14T18:19:40.982Z,100149.94
2022-11-14T18:22:08.248Z,100144.63
2022-11-14T18:24:35.992Z,100144.44
2022-11-14T18:27:03.639Z,100143.41
2022-11-14T18:29:31.827Z,100145.28
2022-11-14T18:31:59.102Z,100137.09
2022-11-14T18:34:26.511Z,100137.91
2022-11-14T18:36:53.944Z,100140.56
2022-11-14T18:39:21.559Z,100144.22
2022-11-14T18:41:48.698Z,100147.69
2022-11-14T18:44:15.875Z,100148.50
2022-11-14T18:46:44.041Z,100145.03
2022-11-14T18:49:11.878Z,100149.38
2022-11-14T18:51:42.464Z,100139.56
2022-11-14T18:54:13.770Z,100136.94
2022-11-14T18:56:41.015Z,100130.63
2022-11-14T18:59:08.812Z,100134.09
2022-11-14T19:01:35.959Z,100134.09
2022-11-14T19:04:04.413Z,100124.50
2022-11-14T19:06:32.792Z,100133.25
2022-11-14T19:09:00.365Z,100139.38
2022-11-14T19:11:37.101Z,100121.84
2022-11-14T19:14:05.630Z,100122.47
2022-11-14T19:16:33.759Z,100117.16
2022-11-14T19:19:01.059Z,100124.28
2022-11-14T19:21:28.500Z,100112.88
2022-11-14T19:23:55.518Z,100128.78
2022-11-14T19:26:22.795Z,100125.13
2022-11-14T19:28:50.110Z,100127.75
2022-11-14T19:31:17.442Z,100120.59
2022-11-14T19:33:45.728Z,100123.88
2022-11-14T19:36:14.206Z,100120.03
2022-11-14T19:38:41.225Z,100126.13
2022-11-14T19:41:08.745Z,100121.63
2022-11-14T19:43:38.224Z,100125.91
2022-11-14T19:46:06.393Z,100122.44
2022-11-14T19:48:33.945Z,100111.66
2022-11-14T19:51:05.286Z,100116.75
2022-11-14T19:53:34.290Z,100119.59
2022-11-14T19:56:03.121Z,100124.50
2022-11-14T19:58:30.505Z,100111.81
2022-11-14T20:01:01.916Z,100114.63
2022-11-14T20:03:29.317Z,100122.00
2022-11-14T20:05:56.571Z,100111.16
2022-11-14T20:08:23.662Z,100122.81
2022-11-14T20:11:00.577Z,100112.00
2022-11-14T20:13:31.823Z,100111.16
2022-11-14T20:15:59.126Z,100116.25
2022-11-14T20:18:26.355Z,100119.53
2022-11-14T20:20:53.614Z,100112.56
2022-11-14T20:23:20.681Z,100114.41
2022-11-14T20:25:52.042Z,100111.56
2022-11-14T20:28:19.340Z,100106.88
2022-11-14T20:30:46.220Z,100105.22
2022-11-14T20:33:13.210Z,100109.50
2022-11-14T20:35:40.939Z,100101.53
2022-11-14T20:38:08.285Z,100103.19
2022-11-14T20:40:35.231Z,100103.78
2022-11-14T20:43:02.432Z,100105.41
2022-11-14T20:45:29.588Z,100113.75
2022-11-14T20:47:56.824Z,100107.00
2022-11-14T20:50:24.721Z,100107.00
2022-11-14T20:52:51.769Z,100113.94
2022-11-14T20:55:20.846Z,100106.00
2022-11-14T20:57:47.455Z,100104.56
2022-11-14T21:00:19.295Z,100108.69
2022-11-14T21:02:48.394Z,100095.44
2022-11-14T21:05:15.399Z,100096.06
2022-11-14T21:07:42.271Z,100100.31
2022-11-14T21:10:27.692Z,100102.78
2022-11-14T21:13:14.884Z,100109.09
2022-11-14T21:15:42.023Z,100101.31
2022-11-14T21:18:11.841Z,100106.41
2022-11-14T21:20:38.706Z,100091.53
2022-11-14T21:23:05.681Z,100097.84
2022-11-14T21:25:32.964Z,100099.91
2022-11-14T21:28:08.938Z,100093.19
2022-11-14T21:30:39.110Z,100098.25
2022-11-14T21:33:38.644Z,100096.22
2022-11-14T21:36:50.867Z,100102.94
2022-11-14T21:39:09.643Z,100099.50
2022-11-14T21:41:36.461Z,100103.56
2022-11-14T21:44:25.947Z,100110.91
2022-11-14T21:47:25.609Z,100103.38
2022-11-14T21:50:08.361Z,100092.16
2022-11-14T21:53:00.038Z,100093.16
2022-11-14T21:55:26.885Z,100093.75
2022-11-14T21:57:56.509Z,100103.72
2022-11-14T22:00:23.549Z,100083.94
2022-11-14T22:03:09.362Z,100092.28
2022-11-14T22:05:36.098Z,100094.91
2022-11-14T22:08:02.785Z,100096.94
2022-11-14T22:10:35.344Z,100089.78
2022-11-14T22:13:02.025Z,100099.34
2022-11-14T22:15:31.829Z,100098.69
2022-11-14T22:17:58.703Z,100092.34
2022-11-14T22:20:26.190Z,100090.06
2022-11-14T22:22:56.216Z,100102.69
2022-11-14T22:25:23.049Z,100107.75
2022-11-14T22:27:49.826Z,100114.66
2022-11-14T22:30:16.672Z,100103.41
2022-11-14T22:32:43.753Z,100103.16
2022-11-14T22:35:10.850Z,100109.44
2022-11-14T22:37:37.779Z,100117.38
2022-11-14T22:40:04.971Z,100113.69
2022-11-14T22:42:31.693Z,100113.50
2022-11-14T22:44:58.577Z,100112.50
2022-11-14T22:47:25.424Z,100104.16
2022-11-14T22:49:52.394Z,100108.16
2022-11-14T22:52:21.402Z,100106.09
2022-11-14T22:54:48.519Z,100098.81
2022-11-14T22:57:15.597Z,100096.59
2022-11-14T22:59:45.273Z,100097.00
2022-11-14T23:02:12.295Z,100092.34
2022-11-14T23:04:39.093Z,100090.72
2022-11-14T23:07:06.132Z,100081.13
2022-11-14T23:09:34.436Z,100087.25
2022-11-14T23:12:01.346Z,100086.06
2022-11-14T23:14:28.172Z,100086.06
2022-11-14T23:16:55.024Z,100084.81
2022-11-14T23:19:21.985Z,100078.13
2022-11-14T23:21:49.109Z,100081.72
2022-11-14T23:24:20.031Z,100082.88
2022-11-14T23:26:46.911Z,100077.34
2022-11-14T23:29:14.584Z,100078.56
2022-11-14T23:31:41.397Z,100071.66
2022-11-14T23:34:10.052Z,100078.75
2022-11-14T23:36:36.861Z,100076.75
2022-11-14T23:39:03.649Z,100077.75
2022-11-14T23:41:30.549Z,100078.56
2022-11-14T23:43:57.501Z,100069.81
2022-11-14T23:46:24.446Z,100071.81
2022-11-14T23:48:53.571Z,100084.22
2022-11-14T23:51:20.586Z,100066.94
2022-11-14T23:53:47.630Z,100064.66
2022-11-14T23:56:17.565Z,100062.41
2022-11-14T23:58:44.555Z,100064.63
